Time;durP1;ratioP1;P1;durP2;ratioP2;P2;SDS_P1;SDS_P2;PMS_P1;PMS_P2;Temp;Humidity;BMP_temperature;BMP_pressure;BME280_temperature;BME280_humidity;BME280_pressure;Samples;Min_cycle;Max_cycle;Signal;HPM_P1;HPM_P2
2022/08/29 00:00:36;;;;;;;2.67;2.30;;;;;;;;;;5048333;28;20046;-62
2022/08/29 00:03:02;;;;;;;4.25;2.95;;;;;;;;;;5048141;28;20438;-62
2022/08/29 00:05:33;;;;;;;3.65;2.78;;;;;;;;;;5047979;28;20391;-62
2022/08/29 00:08:00;;;;;;;3.80;2.97;;;;;;;;;;5048095;28;20031;-62
2022/08/29 00:10:27;;;;;;;3.70;3.00;;;;;;;;;;5047804;28;20446;-62
2022/08/29 00:12:52;;;;;;;3.20;2.28;;;;;;;;;;5047745;28;20106;-62
2022/08/29 00:15:19;;;;;;;3.47;2.47;;;;;;;;;;5048202;28;20054;-62
2022/08/29 00:17:45;;;;;;;2.97;2.20;;;;;;;;;;5048130;28;20054;-63
2022/08/29 00:20:15;;;;;;;4.35;2.40;;;;;;;;;;5047757;28;20530;-62
2022/08/29 00:22:40;;;;;;;8.23;2.55;;;;;;;;;;5047828;28;20027;-63
2022/08/29 00:25:08;;;;;;;17.42;3.42;;;;;;;;;;5047441;28;20490;-62
2022/08/29 00:27:33;;;;;;;3.63;2.70;;;;;;;;;;5050292;28;20492;-63
2022/08/29 00:29:59;;;;;;;3.53;2.65;;;;;;;;;;5049546;28;20857;-62
2022/08/29 00:32:25;;;;;;;3.97;2.60;;;;;;;;;;5047657;28;20418;-62
2022/08/29 00:34:51;;;;;;;3.88;2.70;;;;;;;;;;5049024;28;20323;-63
2022/08/29 00:37:16;;;;;;;3.38;2.60;;;;;;;;;;5048982;28;20362;-62
2022/08/29 00:39:41;;;;;;;4.20;2.38;;;;;;;;;;5049675;28;20299;-63
2022/08/29 00:42:07;;;;;;;3.60;2.70;;;;;;;;;;5048063;28;20342;-63
2022/08/29 00:44:33;;;;;;;3.35;2.92;;;;;;;;;;5047241;28;20373;-63
2022/08/29 00:47:02;;;;;;;5.80;2.88;;;;;;;;;;5047331;28;20323;-63
2022/08/29 00:49:30;;;;;;;5.50;2.70;;;;;;;;;;5047226;28;20458;-63
2022/08/29 00:51:57;;;;;;;4.35;2.47;;;;;;;;;;5047270;28;20580;-63
2022/08/29 00:54:23;;;;;;;3.25;2.60;;;;;;;;;;5029357;28;20450;-62
2022/08/29 00:56:49;;;;;;;4.45;2.97;;;;;;;;;;5048295;28;20438;-63
2022/08/29 00:59:25;;;;;;;5.65;3.38;;;;;;;;;;5012265;28;20370;-62
2022/08/29 01:01:51;;;;;;;5.97;3.83;;;;;;;;;;5041141;28;20434;-62
2022/08/29 01:04:17;;;;;;;4.25;2.95;;;;;;;;;;5039186;28;20474;-66
2022/08/29 01:06:43;;;;;;;6.00;3.22;;;;;;;;;;5048654;28;20024;-62
2022/08/29 01:09:09;;;;;;;4.50;3.20;;;;;;;;;;5047155;28;20050;-63
2022/08/29 01:14:20;;;;;;;10.00;4.15;;;;;;;;;;5035726;28;20461;-63
2022/08/29 01:16:46;;;;;;;7.60;4.38;;;;;;;;;;5052271;28;20409;-62
2022/08/29 01:19:39;;;;;;;6.10;4.07;;;;;;;;;;5032995;28;20323;-63
2022/08/29 01:22:23;;;;;;;5.63;4.18;;;;;;;;;;5034209;28;20027;-62
2022/08/29 01:24:50;;;;;;;6.13;3.97;;;;;;;;;;5052167;28;20445;-63
2022/08/29 01:27:20;;;;;;;5.32;3.70;;;;;;;;;;5032957;28;20446;-63
2022/08/29 01:29:46;;;;;;;7.47;4.13;;;;;;;;;;5051085;28;20128;-62
2022/08/29 01:32:11;;;;;;;6.13;4.55;;;;;;;;;;5051121;28;20118;-63
2022/08/29 01:34:37;;;;;;;7.03;4.95;;;;;;;;;;5050854;28;20445;-63
2022/08/29 01:37:04;;;;;;;4.97;4.13;;;;;;;;;;5052777;28;20337;-62
2022/08/29 01:39:34;;;;;;;8.15;3.80;;;;;;;;;;5050792;28;20145;-63
2022/08/29 01:42:02;;;;;;;7.90;4.22;;;;;;;;;;5050943;28;20404;-62
2022/08/29 01:44:28;;;;;;;10.48;5.10;;;;;;;;;;5052417;28;20373;-62
2022/08/29 01:46:56;;;;;;;5.93;4.30;;;;;;;;;;5051024;28;20428;-64
2022/08/29 01:49:23;;;;;;;7.68;4.93;;;;;;;;;;5050686;28;20451;-63
2022/08/29 01:51:49;;;;;;;6.75;4.95;;;;;;;;;;5050643;28;20461;-62
2022/08/29 01:54:14;;;;;;;8.25;4.68;;;;;;;;;;5050328;28;20039;-62
2022/08/29 01:56:43;;;;;;;7.95;4.68;;;;;;;;;;5050439;28;20042;-62
2022/08/29 01:59:13;;;;;;;6.53;4.47;;;;;;;;;;5050621;28;20459;-63
2022/08/29 02:01:41;;;;;;;8.10;5.22;;;;;;;;;;5050740;28;20430;-62
2022/08/29 02:04:07;;;;;;;7.50;4.95;;;;;;;;;;5032053;28;20464;-62
2022/08/29 02:06:35;;;;;;;6.22;4.38;;;;;;;;;;5050131;28;20470;-62
2022/08/29 02:09:00;;;;;;;9.25;5.38;;;;;;;;;;5050316;28;20453;-62
2022/08/29 02:11:26;;;;;;;7.35;4.78;;;;;;;;;;5052365;28;20343;-64
2022/08/29 02:13:54;;;;;;;14.70;4.57;;;;;;;;;;5050220;28;20446;-65
2022/08/29 02:16:21;;;;;;;8.20;4.90;;;;;;;;;;5050807;28;20303;-62
2022/08/29 02:18:47;;;;;;;6.45;4.50;;;;;;;;;;5051185;28;20116;-63
2022/08/29 02:21:14;;;;;;;6.35;4.68;;;;;;;;;;5049453;28;20529;-62
2022/08/29 02:23:40;;;;;;;7.93;5.03;;;;;;;;;;5050479;28;20315;-62
2022/08/29 02:26:06;;;;;;;10.10;5.25;;;;;;;;;;5050047;28;20027;-64
2022/08/29 02:28:32;;;;;;;7.90;5.18;;;;;;;;;;5050015;28;20449;-63
2022/08/29 02:30:58;;;;;;;8.18;4.50;;;;;;;;;;5049995;28;20442;-62
2022/08/29 02:33:24;;;;;;;7.80;5.03;;;;;;;;;;5049906;28;20487;-65
2022/08/29 02:35:50;;;;;;;8.60;5.35;;;;;;;;;;5051664;28;20413;-63
2022/08/29 02:38:16;;;;;;;12.00;6.15;;;;;;;;;;5049629;28;20366;-62
2022/08/29 02:40:42;;;;;;;7.88;4.97;;;;;;;;;;5050618;28;20338;-63
2022/08/29 02:43:08;;;;;;;9.98;5.50;;;;;;;;;;5049840;28;20510;-62
2022/08/29 02:45:37;;;;;;;7.95;4.55;;;;;;;;;;5049507;28;20481;-62
2022/08/29 02:48:03;;;;;;;6.22;4.53;;;;;;;;;;5049570;28;20047;-62
2022/08/29 02:50:29;;;;;;;12.30;5.32;;;;;;;;;;5049495;28;20450;-62
2022/08/29 02:52:55;;;;;;;9.68;5.35;;;;;;;;;;5049282;28;20494;-64
2022/08/29 02:55:21;;;;;;;8.45;5.22;;;;;;;;;;5049286;28;20377;-63
2022/08/29 02:57:46;;;;;;;8.85;5.97;;;;;;;;;;5049313;28;20464;-62
2022/08/29 03:00:20;;;;;;;6.50;4.63;;;;;;;;;;5049408;28;20366;-63
2022/08/29 03:02:46;;;;;;;12.30;5.07;;;;;;;;;;5050877;28;20413;-62
2022/08/29 03:05:13;;;;;;;10.10;5.78;;;;;;;;;;5049341;28;20114;-62
2022/08/29 03:07:39;;;;;;;7.80;5.15;;;;;;;;;;5049010;28;20438;-62
2022/08/29 03:10:06;;;;;;;8.15;6.00;;;;;;;;;;5049019;28;20522;-62
2022/08/29 03:12:32;;;;;;;10.05;5.50;;;;;;;;;;5049025;28;20341;-64
2022/08/29 03:14:57;;;;;;;9.95;5.30;;;;;;;;;;5049055;28;20338;-62
2022/08/29 03:17:23;;;;;;;12.38;5.43;;;;;;;;;;5049205;28;20346;-63
2022/08/29 03:19:48;;;;;;;7.68;4.75;;;;;;;;;;5049003;28;20357;-62
2022/08/29 03:22:14;;;;;;;8.75;4.78;;;;;;;;;;5048854;28;20117;-63
2022/08/29 03:24:39;;;;;;;10.50;5.18;;;;;;;;;;5048870;28;20571;-62
2022/08/29 03:27:05;;;;;;;6.55;4.53;;;;;;;;;;5049267;28;20486;-62
2022/08/29 03:29:31;;;;;;;8.48;5.10;;;;;;;;;;5049815;28;20513;-62
2022/08/29 03:31:57;;;;;;;5.80;4.50;;;;;;;;;;5050196;28;20418;-62
2022/08/29 03:34:26;;;;;;;13.00;4.70;;;;;;;;;;5048243;28;20430;-62
2022/08/29 03:36:51;;;;;;;5.88;4.45;;;;;;;;;;5048619;28;20422;-62
2022/08/29 03:39:17;;;;;;;8.82;4.70;;;;;;;;;;5049724;28;20320;-62
2022/08/29 03:41:42;;;;;;;4.63;3.53;;;;;;;;;;5048344;28;20099;-62
2022/08/29 03:44:08;;;;;;;7.53;3.75;;;;;;;;;;5048384;28;20503;-62
2022/08/29 03:46:34;;;;;;;7.82;4.15;;;;;;;;;;5048504;28;20019;-63
2022/08/29 03:49:00;;;;;;;5.22;3.63;;;;;;;;;;5050322;28;20338;-62
2022/08/29 03:51:25;;;;;;;9.38;4.32;;;;;;;;;;5048280;28;20420;-63
2022/08/29 03:53:51;;;;;;;8.65;4.03;;;;;;;;;;5047901;28;20100;-62
2022/08/29 03:56:16;;;;;;;4.88;3.60;;;;;;;;;;5048645;28;20331;-62
2022/08/29 03:58:42;;;;;;;7.07;4.20;;;;;;;;;;5031083;28;20456;-63
2022/08/29 04:01:08;;;;;;;11.70;4.72;;;;;;;;;;5048169;28;20438;-63
2022/08/29 04:03:34;;;;;;;8.93;5.35;;;;;;;;;;5048138;28;20408;-62
2022/08/29 04:06:00;;;;;;;10.43;5.00;;;;;;;;;;5048187;28;20355;-62
2022/08/29 04:08:25;;;;;;;6.95;4.50;;;;;;;;;;5048254;28;20343;-62
2022/08/29 04:10:50;;;;;;;8.40;5.10;;;;;;;;;;5048029;28;20335;-62
2022/08/29 04:13:16;;;;;;;9.10;6.05;;;;;;;;;;5048569;28;20091;-63
2022/08/29 04:15:42;;;;;;;10.65;4.97;;;;;;;;;;5048203;28;20028;-62
2022/08/29 04:18:09;;;;;;;11.20;5.32;;;;;;;;;;5047768;28;20023;-63
2022/08/29 04:20:40;;;;;;;8.55;5.20;;;;;;;;;;5049476;28;20303;-64
2022/08/29 04:23:06;;;;;;;12.20;5.93;;;;;;;;;;5048245;28;20442;-63
2022/08/29 04:25:35;;;;;;;8.45;5.05;;;;;;;;;;5047869;28;20331;-62
2022/08/29 04:28:03;;;;;;;9.73;4.95;;;;;;;;;;5048858;28;20092;-62
2022/08/29 04:30:29;;;;;;;16.45;6.28;;;;;;;;;;5030104;28;20046;-63
2022/08/29 04:32:54;;;;;;;11.88;5.97;;;;;;;;;;5048476;28;20023;-62
2022/08/29 04:35:20;;;;;;;16.38;6.20;;;;;;;;;;5047339;28;20427;-62
2022/08/29 04:37:45;;;;;;;9.20;5.30;;;;;;;;;;5047641;28;20028;-62
2022/08/29 04:40:14;;;;;;;9.77;5.90;;;;;;;;;;5047437;28;20027;-62
2022/08/29 04:42:39;;;;;;;;;;;;;;;;;;5047739;28;20409;-63
2022/08/29 04:45:06;;;;;;;9.73;5.20;;;;;;;;;;5048549;28;20030;-65
2022/08/29 04:47:34;;;;;;;9.85;5.20;;;;;;;;;;5048403;28;20545;-62
2022/08/29 04:49:59;;;;;;;11.25;5.25;;;;;;;;;;5047361;28;20016;-62
2022/08/29 04:52:25;;;;;;;15.52;6.70;;;;;;;;;;5047387;28;20049;-62
2022/08/29 04:54:50;;;;;;;10.95;6.13;;;;;;;;;;5047740;28;20428;-63
2022/08/29 04:57:18;;;;;;;8.38;4.82;;;;;;;;;;5047339;28;20495;-62
2022/08/29 04:59:43;;;;;;;10.25;4.40;;;;;;;;;;5047780;28;20432;-62
2022/08/29 05:02:09;;;;;;;9.27;5.15;;;;;;;;;;5048131;28;20043;-62
2022/08/29 05:04:34;;;;;;;9.20;4.78;;;;;;;;;;5044023;28;20494;-62
2022/08/29 05:06:59;;;;;;;8.82;5.15;;;;;;;;;;5036578;28;20551;-62
2022/08/29 05:09:25;;;;;;;9.65;5.18;;;;;;;;;;4988691;28;20412;-62
2022/08/29 05:11:50;;;;;;;9.98;5.05;;;;;;;;;;4987458;28;20410;-62
2022/08/29 05:14:16;;;;;;;9.32;4.80;;;;;;;;;;4987286;28;20061;-62
2022/08/29 05:16:41;;;;;;;7.68;4.78;;;;;;;;;;4987499;28;20065;-62
2022/08/29 05:19:07;;;;;;;9.70;5.53;;;;;;;;;;4988049;28;20400;-62
2022/08/29 05:21:34;;;;;;;9.38;4.20;;;;;;;;;;4987856;28;20398;-64
2022/08/29 05:23:59;;;;;;;9.18;5.43;;;;;;;;;;4989509;28;20360;-62
2022/08/29 05:26:30;;;;;;;7.25;5.00;;;;;;;;;;4987036;28;20392;-62
2022/08/29 05:28:56;;;;;;;9.82;4.55;;;;;;;;;;4987052;28;20454;-62
2022/08/29 05:31:22;;;;;;;8.70;4.80;;;;;;;;;;4987136;28;20443;-63
2022/08/29 05:33:47;;;;;;;9.15;4.63;;;;;;;;;;4989020;28;20364;-63
2022/08/29 05:36:13;;;;;;;10.88;5.35;;;;;;;;;;4988831;28;20388;-63
2022/08/29 05:38:38;;;;;;;10.27;4.35;;;;;;;;;;4986952;28;20404;-63
2022/08/29 05:41:04;;;;;;;6.78;4.10;;;;;;;;;;4987255;28;20415;-62
2022/08/29 05:43:31;;;;;;;7.45;4.20;;;;;;;;;;4987012;28;20344;-63
2022/08/29 05:46:04;;;;;;;4.82;4.10;;;;;;;;;;4986843;28;20055;-64
2022/08/29 05:48:32;;;;;;;5.80;3.78;;;;;;;;;;4987261;28;20096;-62
2022/08/29 05:51:01;;;;;;;11.15;4.20;;;;;;;;;;4987337;28;20025;-64
2022/08/29 05:53:27;;;;;;;10.50;4.47;;;;;;;;;;4968164;28;20511;-62
2022/08/29 05:55:52;;;;;;;7.85;4.03;;;;;;;;;;4987087;28;20431;-63
2022/08/29 05:58:18;;;;;;;7.63;3.78;;;;;;;;;;4990189;28;20482;-63
2022/08/29 06:00:45;;;;;;;6.20;3.80;;;;;;;;;;4990949;28;20543;-63
2022/08/29 06:03:10;;;;;;;5.78;3.55;;;;;;;;;;4990880;28;20060;-64
2022/08/29 06:05:37;;;;;;;7.47;3.60;;;;;;;;;;4990725;28;20531;-63
2022/08/29 06:08:03;;;;;;;7.75;3.40;;;;;;;;;;4990560;28;20025;-62
2022/08/29 06:10:28;;;;;;;4.13;3.03;;;;;;;;;;4990601;28;20355;-63
2022/08/29 06:12:54;;;;;;;6.05;3.78;;;;;;;;;;4992502;28;20028;-63
2022/08/29 06:15:19;;;;;;;5.10;3.28;;;;;;;;;;4990970;28;20442;-63
2022/08/29 06:17:46;;;;;;;5.65;3.33;;;;;;;;;;4988292;28;20368;-64
2022/08/29 06:20:11;;;;;;;4.68;2.85;;;;;;;;;;4954922;28;20134;-64
2022/08/29 06:22:38;;;;;;;5.93;3.83;;;;;;;;;;4990643;28;20104;-63
2022/08/29 06:25:04;;;;;;;6.70;3.42;;;;;;;;;;4990795;28;20186;-63
2022/08/29 06:27:30;;;;;;;5.80;3.55;;;;;;;;;;4972516;28;20514;-62
2022/08/29 06:29:55;;;;;;;6.75;4.00;;;;;;;;;;4990844;28;20505;-62
2022/08/29 06:32:20;;;;;;;5.47;3.47;;;;;;;;;;4990198;28;20333;-62
2022/08/29 06:34:46;;;;;;;4.25;3.00;;;;;;;;;;4990072;28;20098;-62
2022/08/29 06:37:11;;;;;;;5.35;3.28;;;;;;;;;;4990622;28;20029;-62
2022/08/29 06:39:37;;;;;;;6.07;3.35;;;;;;;;;;4989370;28;20029;-63
2022/08/29 06:42:03;;;;;;;6.05;3.20;;;;;;;;;;4991189;28;20347;-63
2022/08/29 06:44:30;;;;;;;5.68;3.10;;;;;;;;;;4992324;28;20347;-63
2022/08/29 06:46:56;;;;;;;8.23;3.13;;;;;;;;;;4990605;28;20414;-62
2022/08/29 06:49:21;;;;;;;7.00;3.38;;;;;;;;;;4990668;28;20529;-63
2022/08/29 06:51:49;;;;;;;6.03;3.25;;;;;;;;;;4990478;28;20638;-63
2022/08/29 06:54:15;;;;;;;5.15;2.72;;;;;;;;;;4991261;28;20131;-63
2022/08/29 06:56:41;;;;;;;6.78;3.45;;;;;;;;;;4992410;28;20440;-63
2022/08/29 06:59:07;;;;;;;4.43;2.90;;;;;;;;;;4990306;28;20336;-63
2022/08/29 07:01:33;;;;;;;8.82;3.35;;;;;;;;;;4990897;28;20416;-63
2022/08/29 07:03:58;;;;;;;5.15;2.83;;;;;;;;;;4989339;28;20393;-63
2022/08/29 07:06:24;;;;;;;5.47;2.78;;;;;;;;;;4990984;28;20498;-64
2022/08/29 07:08:50;;;;;;;8.45;3.40;;;;;;;;;;4988513;28;20367;-63
2022/08/29 07:11:16;;;;;;;3.13;2.58;;;;;;;;;;4989601;28;20371;-63
2022/08/29 07:13:41;;;;;;;9.85;2.90;;;;;;;;;;4989745;28;20463;-63
2022/08/29 07:16:15;;;;;;;3.53;2.70;;;;;;;;;;4989513;28;20432;-63
2022/08/29 07:18:44;;;;;;;4.15;2.20;;;;;;;;;;4990687;28;20479;-63
2022/08/29 07:21:12;;;;;;;5.63;2.78;;;;;;;;;;4989421;28;20029;-63
2022/08/29 07:23:38;;;;;;;4.13;2.58;;;;;;;;;;4989033;28;20455;-63
2022/08/29 07:26:18;;;;;;;7.65;2.85;;;;;;;;;;4989460;28;20428;-63
2022/08/29 07:28:46;;;;;;;3.55;2.55;;;;;;;;;;4989781;28;20391;-63
2022/08/29 07:31:12;;;;;;;2.95;2.13;;;;;;;;;;4990081;28;20033;-63
2022/08/29 07:33:37;;;;;;;5.00;2.83;;;;;;;;;;4990513;28;20459;-63
2022/08/29 07:36:03;;;;;;;4.95;2.70;;;;;;;;;;4989731;28;20047;-63
2022/08/29 07:38:29;;;;;;;5.18;2.42;;;;;;;;;;4988604;28;20347;-63
2022/08/29 07:41:09;;;;;;;5.55;2.22;;;;;;;;;;4990138;28;20446;-63
2022/08/29 07:43:34;;;;;;;6.78;1.90;;;;;;;;;;4988495;28;20361;-63
2022/08/29 07:46:12;;;;;;;4.90;2.30;;;;;;;;;;4988684;28;20088;-63
2022/08/29 07:48:38;;;;;;;5.45;1.83;;;;;;;;;;4988383;28;20451;-63
2022/08/29 07:51:12;;;;;;;5.32;2.17;;;;;;;;;;4988437;28;20455;-63
2022/08/29 07:53:39;;;;;;;5.85;2.20;;;;;;;;;;4989380;28;20422;-62
2022/08/29 07:56:14;;;;;;;3.97;2.38;;;;;;;;;;4988911;28;20025;-63
2022/08/29 07:58:40;;;;;;;7.63;2.72;;;;;;;;;;4988385;28;20384;-64
2022/08/29 08:01:05;;;;;;;5.00;2.42;;;;;;;;;;4988394;28;20374;-62
2022/08/29 08:03:31;;;;;;;10.20;3.30;;;;;;;;;;4988286;28;20032;-63
2022/08/29 08:05:57;;;;;;;6.47;2.15;;;;;;;;;;4988267;28;20419;-63
2022/08/29 08:08:22;;;;;;;4.05;2.55;;;;;;;;;;4974551;28;20067;-62
2022/08/29 08:10:48;;;;;;;5.82;2.38;;;;;;;;;;4988304;28;20466;-62
2022/08/29 08:13:13;;;;;;;4.15;2.17;;;;;;;;;;4988601;28;20446;-62
2022/08/29 08:15:39;;;;;;;3.35;2.33;;;;;;;;;;4987271;28;20033;-62
2022/08/29 08:18:06;;;;;;;3.58;2.15;;;;;;;;;;4990592;28;20404;-62
2022/08/29 08:20:32;;;;;;;7.32;3.25;;;;;;;;;;4988676;28;20348;-62
2022/08/29 08:22:58;;;;;;;4.22;2.00;;;;;;;;;;4987864;28;20344;-62
2022/08/29 08:25:24;;;;;;;6.05;2.10;;;;;;;;;;4987929;28;20391;-62
2022/08/29 08:27:50;;;;;;;4.90;2.95;;;;;;;;;;4989429;28;20347;-63
2022/08/29 08:30:16;;;;;;;7.68;2.97;;;;;;;;;;4987964;28;20375;-62
2022/08/29 08:32:41;;;;;;;5.38;2.55;;;;;;;;;;4988242;28;20374;-61
2022/08/29 08:35:07;;;;;;;4.35;2.50;;;;;;;;;;4988091;28;20033;-62
2022/08/29 08:37:32;;;;;;;6.72;2.42;;;;;;;;;;4987685;28;20371;-61
2022/08/29 08:39:58;;;;;;;5.47;2.58;;;;;;;;;;4988769;28;20084;-61
2022/08/29 08:42:42;;;;;;;7.32;2.60;;;;;;;;;;4989387;28;20061;-61
2022/08/29 08:45:19;;;;;;;3.40;2.33;;;;;;;;;;4987665;28;20455;-61
2022/08/29 08:47:59;;;;;;;8.02;2.80;;;;;;;;;;4970031;28;20467;-61
2022/08/29 08:50:51;;;;;;;5.03;2.90;;;;;;;;;;4987044;28;20501;-61
2022/08/29 08:53:29;;;;;;;4.85;2.72;;;;;;;;;;4985170;28;20083;-63
2022/08/29 08:55:56;;;;;;;4.13;2.47;;;;;;;;;;4987294;28;20493;-63
2022/08/29 08:58:24;;;;;;;3.67;2.30;;;;;;;;;;4987442;28;20458;-63
2022/08/29 09:00:57;;;;;;;9.57;2.78;;;;;;;;;;4987212;28;20029;-63
2022/08/29 09:03:47;;;;;;;6.03;2.38;;;;;;;;;;4987552;28;20094;-63
2022/08/29 09:06:28;;;;;;;4.00;2.50;;;;;;;;;;4985903;28;20029;-63
2022/08/29 09:08:53;;;;;;;3.85;2.63;;;;;;;;;;4986420;28;20325;-63
2022/08/29 09:11:32;;;;;;;6.38;2.30;;;;;;;;;;4988126;28;20367;-63
2022/08/29 09:14:07;;;;;;;5.15;2.53;;;;;;;;;;4987556;28;20421;-63
2022/08/29 09:16:39;;;;;;;2.90;2.15;;;;;;;;;;4969764;28;20171;-63
2022/08/29 09:19:08;;;;;;;8.02;3.03;;;;;;;;;;4987560;28;20458;-63
2022/08/29 09:21:37;;;;;;;;;;;;;;;;;;4989005;28;20436;-63
2022/08/29 09:24:05;;;;;;;3.97;2.50;;;;;;;;;;4970251;28;20398;-63
2022/08/29 09:26:31;;;;;;;4.00;2.70;;;;;;;;;;4987785;28;20343;-63
2022/08/29 09:28:57;;;;;;;3.90;2.08;;;;;;;;;;4989231;28;20394;-63
2022/08/29 09:31:25;;;;;;;7.68;2.50;;;;;;;;;;4991241;28;20414;-63
2022/08/29 09:33:55;;;;;;;4.10;2.55;;;;;;;;;;4993539;28;20171;-63
2022/08/29 09:36:49;;;;;;;2.72;2.15;;;;;;;;;;4992490;28;20375;-63
2022/08/29 09:39:30;;;;;;;5.30;2.65;;;;;;;;;;4992198;28;20849;-62
2022/08/29 09:42:21;;;;;;;7.63;2.78;;;;;;;;;;4991068;28;20092;-63
2022/08/29 09:44:54;;;;;;;4.60;2.50;;;;;;;;;;4991435;28;20029;-63
2022/08/29 09:47:26;;;;;;;6.13;2.13;;;;;;;;;;4991897;28;20422;-63
2022/08/29 09:50:01;;;;;;;4.38;2.22;;;;;;;;;;4992745;28;20383;-63
2022/08/29 09:52:26;;;;;;;5.05;2.33;;;;;;;;;;4992108;28;20343;-63
2022/08/29 09:54:51;;;;;;;4.60;2.13;;;;;;;;;;4991340;28;20337;-63
2022/08/29 09:57:17;;;;;;;6.05;2.22;;;;;;;;;;4991140;28;20454;-62
2022/08/29 09:59:45;;;;;;;2.83;2.15;;;;;;;;;;4990603;28;20430;-63
2022/08/29 10:02:24;;;;;;;3.33;2.20;;;;;;;;;;4990995;28;20047;-63
2022/08/29 10:05:00;;;;;;;3.92;2.33;;;;;;;;;;4992512;28;20344;-62
2022/08/29 10:07:30;;;;;;;4.38;1.95;;;;;;;;;;4990662;28;20472;-62
2022/08/29 10:10:03;;;;;;;3.00;2.30;;;;;;;;;;4990896;28;20036;-63
2022/08/29 10:13:09;;;;;;;3.03;2.13;;;;;;;;;;4991987;28;20025;-63
2022/08/29 10:15:40;;;;;;;4.65;2.40;;;;;;;;;;4970422;28;20440;-63
2022/08/29 10:18:19;;;;;;;3.28;2.00;;;;;;;;;;4989235;28;20048;-62
2022/08/29 10:21:09;;;;;;;3.97;1.98;;;;;;;;;;4972853;28;20432;-62
2022/08/29 10:24:19;;;;;;;3.25;2.13;;;;;;;;;;4989799;28;20091;-62
2022/08/29 10:27:02;;;;;;;3.45;2.25;;;;;;;;;;4990526;28;20463;-62
2022/08/29 10:29:46;;;;;;;2.47;1.77;;;;;;;;;;4972491;28;20055;-62
2022/08/29 10:32:30;;;;;;;4.80;1.80;;;;;;;;;;4991405;28;20045;-62
2022/08/29 10:35:14;;;;;;;2.83;1.90;;;;;;;;;;4990591;28;20551;-62
2022/08/29 10:37:45;;;;;;;3.97;1.67;;;;;;;;;;4990456;28;20438;-62
2022/08/29 10:40:22;;;;;;;3.15;1.60;;;;;;;;;;4989963;28;20468;-62
2022/08/29 10:42:53;;;;;;;5.18;1.85;;;;;;;;;;4971397;28;20462;-62
2022/08/29 10:45:48;;;;;;;2.63;1.60;;;;;;;;;;4972277;28;20451;-63
2022/08/29 10:48:40;;;;;;;5.10;1.90;;;;;;;;;;4972409;28;20051;-62
2022/08/29 10:51:25;;;;;;;4.70;1.98;;;;;;;;;;4989682;28;20493;-63
2022/08/29 10:53:58;;;;;;;3.85;1.75;;;;;;;;;;4977827;28;20372;-63
2022/08/29 10:56:30;;;;;;;2.97;1.80;;;;;;;;;;4991330;28;20024;-63
2022/08/29 10:59:01;;;;;;;4.15;1.70;;;;;;;;;;4972872;28;20348;-63
2022/08/29 11:01:37;;;;;;;3.42;1.65;;;;;;;;;;4990761;28;20525;-63
2022/08/29 11:04:16;;;;;;;3.70;2.00;;;;;;;;;;4990003;28;20170;-63
2022/08/29 11:07:19;;;;;;;4.60;1.50;;;;;;;;;;4990770;28;20029;-63
2022/08/29 11:09:55;;;;;;;2.53;1.75;;;;;;;;;;4986177;28;20379;-63
2022/08/29 11:12:46;;;;;;;5.45;1.58;;;;;;;;;;4989695;28;20341;-63
2022/08/29 11:15:17;;;;;;;2.85;1.60;;;;;;;;;;4989759;28;20459;-63
2022/08/29 11:17:51;;;;;;;2.45;1.58;;;;;;;;;;4989605;28;20347;-63
2022/08/29 11:20:20;;;;;;;3.08;2.05;;;;;;;;;;4988255;28;20455;-63
2022/08/29 11:23:04;;;;;;;3.13;1.60;;;;;;;;;;4971426;28;20029;-63
2022/08/29 11:25:31;;;;;;;3.05;1.50;;;;;;;;;;4991009;28;20364;-63
2022/08/29 11:28:06;;;;;;;2.72;1.40;;;;;;;;;;4988487;28;20494;-63
2022/08/29 11:30:52;;;;;;;3.17;1.38;;;;;;;;;;4989499;28;20436;-63
2022/08/29 11:33:47;;;;;;;3.17;1.48;;;;;;;;;;4989336;28;20391;-64
2022/08/29 11:36:42;;;;;;;5.65;1.77;;;;;;;;;;4987799;28;20463;-63
2022/08/29 11:39:10;;;;;;;3.28;1.75;;;;;;;;;;4988949;28;20025;-63
2022/08/29 11:41:37;;;;;;;2.90;1.40;;;;;;;;;;4990045;28;20502;-63
2022/08/29 11:44:32;;;;;;;2.72;1.50;;;;;;;;;;4971897;28;20454;-62
2022/08/29 11:46:58;;;;;;;2.33;1.67;;;;;;;;;;4988934;28;20456;-62
2022/08/29 11:49:30;;;;;;;2.70;1.70;;;;;;;;;;4971408;28;20321;-63
2022/08/29 11:52:18;;;;;;;4.18;1.48;;;;;;;;;;4989577;28;20490;-62
2022/08/29 11:54:49;;;;;;;4.25;1.70;;;;;;;;;;4987524;28;20530;-63
2022/08/29 11:57:15;;;;;;;2.47;1.30;;;;;;;;;;4988377;28;20344;-63
2022/08/29 11:59:53;;;;;;;4.30;1.88;;;;;;;;;;4988627;28;20055;-63
2022/08/29 12:02:30;;;;;;;2.42;1.27;;;;;;;;;;4988595;28;20440;-63
2022/08/29 12:05:15;;;;;;;2.23;1.30;;;;;;;;;;4988223;28;20171;-63
2022/08/29 12:07:47;;;;;;;3.65;1.73;;;;;;;;;;4988479;28;20784;-63
2022/08/29 12:10:18;;;;;;;2.72;1.33;;;;;;;;;;4988470;28;20056;-63
2022/08/29 12:12:48;;;;;;;2.60;1.40;;;;;;;;;;4988932;28;20107;-63
2022/08/29 12:15:26;;;;;;;3.47;1.52;;;;;;;;;;4989260;28;20443;-63
2022/08/29 12:17:53;;;;;;;2.45;1.52;;;;;;;;;;4988450;28;20394;-63
2022/08/29 12:20:43;;;;;;;3.00;1.25;;;;;;;;;;4990636;28;20447;-63
2022/08/29 12:23:11;;;;;;;3.70;1.30;;;;;;;;;;4958948;28;20555;-63
2022/08/29 12:25:53;;;;;;;3.13;1.55;;;;;;;;;;4988624;28;20502;-63
2022/08/29 12:28:29;;;;;;;3.65;1.90;;;;;;;;;;4986964;28;20528;-63
2022/08/29 12:30:58;;;;;;;2.00;1.17;;;;;;;;;;4987842;28;20029;-63
2022/08/29 12:33:48;;;;;;;3.97;1.30;;;;;;;;;;4988192;28;20094;-63
2022/08/29 12:36:25;;;;;;;2.53;1.38;;;;;;;;;;4986503;28;20394;-63
2022/08/29 12:39:12;;;;;;;1.90;1.17;;;;;;;;;;4988685;28;20482;-63
2022/08/29 12:42:15;;;;;;;3.63;1.27;;;;;;;;;;4988603;28;20471;-63
2022/08/29 12:44:43;;;;;;;4.38;1.92;;;;;;;;;;4990427;28;20032;-63
2022/08/29 12:47:12;;;;;;;6.03;1.70;;;;;;;;;;4988554;28;20459;-63
2022/08/29 12:49:50;;;;;;;2.95;1.48;;;;;;;;;;4989016;28;20383;-66
2022/08/29 12:52:32;;;;;;;3.53;1.80;;;;;;;;;;4988726;28;20482;-63
2022/08/29 12:55:16;;;;;;;2.42;1.45;;;;;;;;;;4987654;28;20479;-63
2022/08/29 12:57:42;;;;;;;2.65;1.50;;;;;;;;;;4988682;28;20021;-63
2022/08/29 13:00:14;;;;;;;3.42;1.40;;;;;;;;;;4989660;28;20459;-63
2022/08/29 13:02:40;;;;;;;3.22;1.35;;;;;;;;;;4987165;28;20029;-63
2022/08/29 13:05:26;;;;;;;4.63;1.58;;;;;;;;;;4988485;28;20482;-63
2022/08/29 13:07:57;;;;;;;4.47;1.90;;;;;;;;;;4988190;28;20386;-63
2022/08/29 13:10:23;;;;;;;1.92;1.48;;;;;;;;;;4988002;28;20387;-63
2022/08/29 13:12:48;;;;;;;3.17;1.40;;;;;;;;;;4988717;28;20149;-62
2022/08/29 13:15:20;;;;;;;3.17;1.40;;;;;;;;;;4988172;28;20032;-63
2022/08/29 13:17:48;;;;;;;4.63;1.75;;;;;;;;;;4988146;28;20468;-63
2022/08/29 13:20:35;;;;;;;5.40;1.70;;;;;;;;;;4971275;28;20356;-62
2022/08/29 13:23:20;;;;;;;4.57;1.53;;;;;;;;;;4989067;28;20518;-63
2022/08/29 13:26:01;;;;;;;3.42;1.52;;;;;;;;;;4988751;28;20772;-63
2022/08/29 13:28:35;;;;;;;2.72;1.50;;;;;;;;;;4970144;28;20325;-63
2022/08/29 13:31:16;;;;;;;4.53;1.45;;;;;;;;;;4988508;28;21106;-63
2022/08/29 13:33:44;;;;;;;2.63;1.55;;;;;;;;;;4988394;28;20480;-63
2022/08/29 13:36:25;;;;;;;;;;;;;;;;;;4988898;28;20106;-63
2022/08/29 13:39:12;;;;;;;3.47;1.40;;;;;;;;;;4989613;28;20250;-63
2022/08/29 13:41:38;;;;;;;3.35;1.50;;;;;;;;;;4988999;28;20335;-63
2022/08/29 13:44:03;;;;;;;3.10;1.42;;;;;;;;;;4970521;28;20037;-62
2022/08/29 13:46:29;;;;;;;3.65;1.40;;;;;;;;;;4988187;28;20440;-63
2022/08/29 13:49:00;;;;;;;3.83;1.52;;;;;;;;;;4970732;28;20463;-63
2022/08/29 13:51:25;;;;;;;3.60;1.90;;;;;;;;;;4988130;28;20463;-63
2022/08/29 13:53:51;;;;;;;3.63;1.50;;;;;;;;;;4987369;28;20457;-63
2022/08/29 13:56:24;;;;;;;6.40;1.85;;;;;;;;;;4988422;28;20379;-63
2022/08/29 13:58:50;;;;;;;4.18;1.20;;;;;;;;;;4970923;28;20072;-63
2022/08/29 14:01:21;;;;;;;2.50;1.23;;;;;;;;;;4988580;28;20503;-63
2022/08/29 14:03:49;;;;;;;3.33;1.30;;;;;;;;;;4966101;28;20495;-63
2022/08/29 14:06:16;;;;;;;;;;;;;;;;;;4987375;28;20462;-63
2022/08/29 14:08:41;;;;;;;4.28;1.38;;;;;;;;;;4952844;28;20229;-62
2022/08/29 14:11:07;;;;;;;2.70;1.50;;;;;;;;;;4986983;28;20348;-63
2022/08/29 14:13:32;;;;;;;4.88;2.33;;;;;;;;;;4986817;28;20425;-62
2022/08/29 14:15:57;;;;;;;3.50;1.80;;;;;;;;;;4986573;28;20316;-62
2022/08/29 14:18:23;;;;;;;3.85;1.30;;;;;;;;;;4988734;28;20344;-63
2022/08/29 14:20:48;;;;;;;6.07;1.73;;;;;;;;;;4990399;28;20451;-63
2022/08/29 14:23:13;;;;;;;4.13;1.60;;;;;;;;;;4990511;28;20056;-62
2022/08/29 14:25:39;;;;;;;3.58;1.45;;;;;;;;;;4989918;28;20036;-63
2022/08/29 14:28:04;;;;;;;4.60;1.77;;;;;;;;;;4990292;28;20348;-63
2022/08/29 14:30:29;;;;;;;2.53;1.33;;;;;;;;;;4990996;28;20094;-63
2022/08/29 14:32:55;;;;;;;6.63;2.00;;;;;;;;;;4989988;28;20449;-62
2022/08/29 14:35:20;;;;;;;4.10;1.50;;;;;;;;;;4990980;28;20383;-63
2022/08/29 14:37:46;;;;;;;4.43;1.40;;;;;;;;;;4990092;28;20366;-62
2022/08/29 14:40:11;;;;;;;3.40;1.30;;;;;;;;;;4989900;28;20436;-62
2022/08/29 14:42:37;;;;;;;3.40;1.30;;;;;;;;;;4990613;28;20530;-64
2022/08/29 14:45:04;;;;;;;4.55;1.23;;;;;;;;;;4989929;28;20360;-62
2022/08/29 14:47:30;;;;;;;4.25;1.40;;;;;;;;;;4989935;28;20533;-62
2022/08/29 14:49:55;;;;;;;3.53;1.35;;;;;;;;;;4989747;28;20479;-62
2022/08/29 14:52:20;;;;;;;4.43;1.65;;;;;;;;;;4991613;28;20324;-63
2022/08/29 14:54:46;;;;;;;6.78;1.48;;;;;;;;;;4989197;28;20395;-62
2022/08/29 14:57:11;;;;;;;4.25;1.52;;;;;;;;;;4990141;28;20424;-62
2022/08/29 14:59:37;;;;;;;3.50;1.42;;;;;;;;;;4989551;28;20040;-64
2022/08/29 15:02:04;;;;;;;4.55;1.42;;;;;;;;;;4991672;28;20305;-63